METAR Data
IDs: Format: Raw Decoded Include TAF

Data at: 1345 UTC 14 Dec 2019

PANA 141256Z AUTO 07004KT OVC045 M04/M05 A2934 RMK AO2 SLP934 T10441050 PWINO FZRANO $
PANA 141205Z AUTO 06006KT SCT003 OVC047 M04/M04 A2935 RMK AO2 PWINO FZRANO $
PANA 141156Z AUTO 06005KT BKN003 OVC047 M04/M04 A2936 RMK AO2 SLP940 70001 T10441044 11011 21044 56013 PWINO FZRANO $
PANA 141143Z AUTO 06007KT SCT003 OVC045 M04/M04 A2936 RMK AO2 PWINO FZRANO $
PANA 141056Z AUTO 05005KT OVC003 M04/M05 A2936 RMK AO2 SLP943 T10441050 PWINO FZRANO $
PANA 141035Z AUTO 03005KT BKN003 BKN035 OVC055 M04/M04 A2937 RMK AO2 PWINO FZRANO $
PANA 140956Z AUTO 04005KT SCT003 BKN034 OVC060 M04/M04 A2939 RMK AO2 SLP950 T10391039 PWINO FZRANO $
PANA 140851Z AUTO 06005KT SCT003 BKN035 OVC055 M02/M03 A2939 RMK AO2 410061072 PWINO FZRANO $
PANA 140756Z AUTO 04003KT SCT007 BKN013 OVC034 M02/M02 A2940 RMK AO2 SLP955 T10171017 PWINO FZRANO $
PANA 140751Z AUTO 06003KT SCT007 BKN011 OVC034 M02/M02 A2940 RMK AO2 PWINO FZRANO $
PANA 140738Z AUTO 07004KT OVC005 M02/M02 A2940 RMK AO2 CIG 002V009 PWINO FZRANO $
PANA 140556Z AUTO 08005KT BKN003 OVC008 M01/M01 A2940 RMK AO2 SLP956 60001 T10111011 11006 21022 58001 PWINO FZRANO $
PANA 140535Z AUTO 08006KT BKN003 OVC007 M01/M01 A2941 RMK AO2 CIG 003V006 PWINO FZRANO $
PANA 140456Z AUTO 08005KT OVC005 M01/M01 A2941 RMK AO2 CIG 003V007 SLP959 T10111011 PWINO FZRANO $
PANA 140438Z AUTO 08005KT OVC005 M01/M02 A2941 RMK AO2 CIG 003V009 PWINO FZRANO $
PANA 140356Z AUTO 08003KT OVC009 M02/M02 A2941 RMK AO2 CIG 007V012 SLP959 P0001 T10171017 PWINO FZRANO $
PANA 140321Z AUTO 09004KT BKN006 BKN012 OVC021 M02/M02 A2941 RMK AO2 CIG 005V009 PWINO FZRANO $
PANA 140256Z AUTO 09003KT BKN004 OVC021 M02/M02 A2941 RMK AO2 SLP958 T10171022 51004 PWINO FZRANO $
PANA 140156Z AUTO 08003KT BKN004 BKN020 OVC055 M02/M02 A2941 RMK AO2 SLP957 T10221022 PWINO FZRANO $
PANA 140125Z AUTO 00000KT FEW004 BKN018 OVC065 M02/M02 A2941 RMK AO2 PWINO FZRANO $
PANA 140056Z AUTO 00000KT FEW004 BKN060 OVC070 M02/M03 A2940 RMK AO2 SLP954 T10221028 PWINO FZRANO $
PANA 140039Z AUTO 17003KT SCT004 BKN034 OVC055 M02/M03 A2940 RMK AO2 PWINO FZRANO $
PANA 132356Z AUTO 18004KT OVC002 M02/M03 A2939 RMK AO2 SLP953 T10221028 11022 21056 51016 PWINO FZRANO $
PANA 132256Z AUTO 20007KT OVC002 M02/M03 A2939 RMK AO2 SLP950 T10221028 PWINO FZRANO $
PANA 132240Z AUTO 20006KT OVC002 M03/M03 A2938 RMK AO2 PWINO FZRANO $
PANA 132156Z AUTO 16003KT OVC004 M04/M04 A2937 RMK AO2 CIG 003V008 SLP946 T10391044 PWINO FZRANO $
PANA 132009Z AUTO 09004KT BKN009 BKN026 OVC080 M06/M07 A2933 RMK AO2 PWINO FZRANO $
PANA 131956Z AUTO 10004KT FEW009 BKN024 OVC080 M06/M07 A2932 RMK AO2 SLP929 T10561067 PWINO FZRANO $
PANA 131856Z AUTO 11003KT BKN015 BKN023 OVC028 M06/M07 A2931 RMK AO2 SLP925 T10561067 PWINO FZRANO $
PANA 131756Z AUTO 10003KT OVC025 M06/M08 A2929 RMK AO2 SLP919 T10611078 11061 21072 53010 PWINO FZRANO $
PANA 131732Z AUTO 11006KT OVC029 M06/M08 A2929 RMK AO2 PWINO FZRANO $
PANA 131556Z AUTO 07003KT OVC050 M07/M08 A2927 RMK AO2 SLP911 T10721083 PWINO FZRANO $
PANA 131456Z AUTO 00000KT OVC075 M07/M08 A2926 RMK AO2 SLP908 T10671083 51005 PWINO FZRANO $
PANA 131356Z AUTO 05003KT OVC070 M07/M08 A2926 RMK AO2 SLP906 T10671083 PWINO FZRANO $
PANA 131256Z AUTO 05004KT OVC070 M07/M08 A2926 RMK AO2 SLP907 T10671083 PWINO FZRANO $
PANA 131156Z AUTO 07006KT BKN085 BKN110 M07/M08 A2925 RMK AO2 SLP903 70001 T10671078 11056 21067 53002 PWINO FZRANO $
PANA 131056Z AUTO 07006KT OVC070 M06/M08 A2925 RMK AO2 SLP903 T10611078 PWINO FZRANO $
PANA 130956Z AUTO 04011G15KT OVC060 M06/M08 A2923 RMK AO2 SLP898 T10611078 PWINO FZRANO $
PANA 130656Z AUTO 04005KT SCT055 M06/M08 A2923 RMK AO2 SLP896 T10611078 PWINO FZRANO $
PANA 130556Z AUTO 04006KT CLR M07/M08 A2922 RMK AO2 SLP895 T10671078 11033 21067 58001 PWINO FZRANO $